Disclaimer

Please do not use the information listed here in-flight or in-navigation, as they are not provided to us by the airports but are provided by volunteers, so they might be outdated.

Search


Regions


Airport information page

Radio informations:
MOSJOEN INFO - 123.4 MHz

Airport informations:
Latitude: 65° 47' 02.39" N
Longitude: 013° 12' 53.69" E
Elevation: 237 feet - 72 meters
Operating hours: N/A
Operating agency: Civil government, landing fees and diplomatic clearance may be required
Timezone: UTC+1(+2DT) - Last Sunday in March to last Sunday in October
Fuel: Jet A1+, Jet A1 with icing inhibitor.

Unknown fuel type or whether there is any fuel.

Runway information:
16/34 - 3015 x 98 feet< - >919 x 30 meters

Recent METARs:
ENMS 201420Z VRB02KT 0500 FG VV002 01/M00 Q1037 RMK WIND 412FT VRB01KT
ENMS 201450Z VRB02KT 0500 FG VV002 00/M00 Q1037 RMK WIND 412FT 30003KT 270V330
ENMS 201520Z VRB01KT 0700 FG VV002 00/M00 Q1037 RMK WIND 412FT VRB02KT

Airport on the map: